createdAt,value
2023-01-21T00:09:25.672Z,-0.34
2023-01-21T00:24:26.208Z,-0.29
2023-01-21T00:39:26.811Z,-0.23
2023-01-21T00:54:27.819Z,-0.26
2023-01-21T01:09:30.337Z,-0.34
2023-01-21T01:24:30.563Z,-0.19
2023-01-21T01:39:31.525Z,-0.23
2023-01-21T01:54:31.698Z,-0.16
2023-01-21T02:09:32.305Z,-0.19
2023-01-21T02:24:32.923Z,-0.18
2023-01-21T02:39:33.533Z,-0.18
2023-01-21T02:54:35.135Z,-0.21
2023-01-21T03:09:36.732Z,-0.08
2023-01-21T03:24:37.353Z,-0.10
2023-01-21T03:39:37.921Z,-0.21
2023-01-21T03:54:38.541Z,-0.29
2023-01-21T04:09:39.146Z,-0.37
2023-01-21T04:24:39.762Z,-0.54
2023-01-21T04:39:40.778Z,-0.52
2023-01-21T04:54:40.978Z,-0.65
2023-01-21T05:09:41.538Z,-0.85
2023-01-21T05:24:42.176Z,-0.89
2023-01-21T05:39:43.199Z,-0.97
2023-01-21T05:54:59.921Z,-0.78
2023-01-21T06:09:49.389Z,-0.57
2023-01-21T06:24:49.576Z,-0.31
2023-01-21T06:39:50.183Z,0.00
2023-01-21T06:54:50.770Z,0.35
2023-01-21T07:09:51.811Z,0.49
2023-01-21T07:24:53.031Z,0.61
2023-01-21T07:39:54.673Z,0.62
2023-01-21T07:54:55.210Z,0.79
2023-01-21T08:09:55.853Z,0.69
2023-01-21T08:24:56.836Z,0.87
2023-01-21T08:39:57.621Z,0.97
2023-01-21T08:54:58.797Z,0.98
2023-01-21T09:09:59.431Z,1.18
2023-01-21T09:25:00.430Z,1.27
2023-01-21T09:40:00.651Z,1.47
2023-01-21T09:55:01.238Z,1.69
2023-01-21T10:10:01.831Z,1.88
2023-01-21T10:25:02.866Z,2.10
2023-01-21T10:40:03.217Z,2.20
2023-01-21T10:55:04.717Z,2.30
2023-01-21T11:10:05.940Z,2.45
2023-01-21T11:25:06.523Z,2.63
2023-01-21T11:40:07.135Z,3.02
2023-01-21T11:55:07.392Z,3.15
2023-01-21T12:10:07.900Z,3.14
2023-01-21T12:25:08.469Z,3.36
2023-01-21T12:40:09.083Z,3.52
2023-01-21T12:55:09.698Z,3.68
2023-01-21T13:10:11.344Z,3.69
2023-01-21T13:25:12.438Z,3.73
2023-01-21T13:40:13.575Z,3.76
2023-01-21T13:55:18.130Z,3.73
2023-01-21T14:10:19.213Z,3.72
2023-01-21T14:25:20.325Z,3.55
2023-01-21T14:40:20.908Z,3.54
2023-01-21T14:55:21.538Z,3.57
2023-01-21T15:10:22.148Z,3.45
2023-01-21T15:25:22.743Z,3.40
2023-01-21T15:40:23.322Z,3.55
2023-01-21T15:55:24.349Z,3.57
2023-01-21T16:10:24.567Z,3.36
2023-01-21T16:25:25.197Z,3.43
2023-01-21T16:40:26.208Z,3.14
2023-01-21T16:55:26.441Z,2.57
2023-01-21T17:10:26.989Z,2.38
2023-01-21T17:25:29.606Z,2.34
2023-01-21T17:40:30.233Z,2.39
2023-01-21T17:55:30.847Z,2.41
2023-01-21T18:10:32.432Z,2.53
2023-01-21T18:25:33.578Z,2.38
2023-01-21T18:40:34.196Z,2.41
2023-01-21T18:55:34.594Z,2.43
2023-01-21T19:10:35.012Z,2.34
2023-01-21T19:25:35.139Z,2.27
2023-01-21T19:40:35.712Z,2.17
2023-01-21T19:55:36.336Z,2.14
2023-01-21T20:10:36.914Z,2.14
2023-01-21T20:25:37.113Z,2.23
2023-01-21T20:40:37.610Z,2.31
2023-01-21T20:55:38.232Z,2.30
2023-01-21T21:10:39.255Z,2.39
2023-01-21T21:25:39.417Z,2.30
2023-01-21T21:40:40.003Z,2.28
2023-01-21T21:55:40.654Z,2.20
2023-01-21T22:10:41.630Z,2.10
2023-01-21T22:25:41.849Z,2.14
2023-01-21T22:40:42.453Z,2.06
2023-01-21T22:55:43.464Z,2.07
2023-01-21T23:10:44.033Z,2.03
2023-01-21T23:25:44.673Z,2.05
2023-01-21T23:40:44.959Z,1.98
2023-01-21T23:55:45.488Z,1.88
